This is the latest recevied weather packets stored in our database for station/object KD4EG. If no packets are shown the sender has not sent any weather packets the latest 10 day(s).
| Time | Temp. | Humidity | Pressure | Rain* | Wind** | Luminosity | Snow |
|---|---|---|---|---|---|---|---|
| 1777312751 | 20° C | 46% | 1024.9 hPa | 0 mm | - | 725 W/m² | - |
| 1777311539 | 18.89° C | 48% | 1025.2 hPa | 0 mm | - | 693 W/m² | - |
| 1777311236 | 20° C | 46% | 1025.3 hPa | 0 mm | - | 657 W/m² | - |
| 1777310329 | 18.33° C | 48% | 1025.6 hPa | 0 mm | - | 652 W/m² | - |
| 1777310026 | 18.33° C | 48% | 1025.4 hPa | 0 mm | - | 679 W/m² | - |
| 1777309724 | 18.89° C | 48% | 1025.7 hPa | 0 mm | - | 684 W/m² | - |
| 1777306693 | 17.22° C | 49% | 1026 hPa | 0 mm | - | 712 W/m² | - |
| 1777305476 | 17.22° C | 47% | 1026 hPa | 0 mm | - | 644 W/m² | - |
| 1777304260 | 16.67° C | 51% | 1026.2 hPa | 0 mm | - | 680 W/m² | - |
| 1777303957 | 16.67° C | 52% | 1026.5 hPa | 0 mm | - | 751 W/m² | - |
| 1777303654 | 16.11° C | 52% | 1026.4 hPa | 0 mm | - | 762 W/m² | - |
| 1777303352 | 16.11° C | 53% | 1026.4 hPa | 0 mm | - | 786 W/m² | - |
| 1777300628 | 15° C | 58% | 1026.7 hPa | 0 mm | - | 704 W/m² | - |
| 1777300325 | 14.44° C | 59% | 1026.6 hPa | 0 mm | - | 701 W/m² | - |
| 1777300022 | 15° C | 59% | 1026.8 hPa | 0 mm | - | 684 W/m² | - |
| 1777299719 | 15.56° C | 59% | 1026.8 hPa | 0 mm | - | 622 W/m² | - |
| 1777299416 | 14.44° C | 59% | 1026.8 hPa | 0 mm | - | 612 W/m² | - |
| 1777299114 | 13.89° C | 61% | 1026.7 hPa | 0 mm | - | 623 W/m² | - |
| 1777298811 | 14.44° C | 62% | 1026.9 hPa | 0 mm | - | 612 W/m² | - |
| 1777298507 | 13.89° C | 63% | 1026.5 hPa | 0 mm | - | 573 W/m² | - |
| 1777298204 | 13.89° C | 62% | 1026.8 hPa | 0 mm | - | 570 W/m² | - |
| 1777297899 | 13.89° C | 64% | 1026.8 hPa | 0 mm | - | 584 W/m² | - |
| 1777297293 | 13.89° C | 62% | 1026.9 hPa | 0 mm | - | 489 W/m² | - |
| 1777296991 | 13.89° C | 62% | 1026.8 hPa | 0 mm | - | 425 W/m² | - |
| 1777296687 | 13.33° C | 66% | 1026.7 hPa | 0 mm | - | 460 W/m² | - |
* Rain latest hour (hover to see other rain measurements)
** Current wind speed in m/s (hover to see current wind gust speed)